Time;durP1;ratioP1;P1;durP2;ratioP2;P2;SDS_P1;SDS_P2;PMS_P1;PMS_P2;Temp;Humidity;BMP_temperature;BMP_pressure;BME280_temperature;BME280_humidity;BME280_pressure;Samples;Min_cycle;Max_cycle;Signal;HPM_P1;HPM_P2
2022/07/15 00:02:20;;;;;;;8.50;2.05;;;17.40;70.30;;;;;;5027549;28;20029;-78
2022/07/15 00:04:46;;;;;;;10.07;2.10;;;17.50;70.40;;;;;;5012965;28;20020;-77
2022/07/15 00:07:12;;;;;;;8.32;2.55;;;17.40;70.50;;;;;;5009079;28;20663;-77
2022/07/15 00:12:23;;;;;;;7.38;1.80;;;17.30;70.80;;;;;;5017029;28;20061;-78
2022/07/15 00:14:51;;;;;;;6.68;1.63;;;17.30;70.80;;;;;;5007384;28;20026;-79
2022/07/15 00:17:17;;;;;;;5.78;1.88;;;17.30;70.90;;;;;;5008200;28;20113;-78
2022/07/15 00:19:42;;;;;;;9.95;1.98;;;17.20;71.10;;;;;;5005957;28;20140;-78
2022/07/15 00:22:08;;;;;;;8.13;2.25;;;17.20;71.20;;;;;;5008975;28;20467;-78
2022/07/15 00:24:34;;;;;;;8.93;2.08;;;17.20;71.40;;;;;;5000458;28;20018;-78
2022/07/15 00:27:02;;;;;;;7.38;2.03;;;17.10;71.50;;;;;;5027928;28;20022;-77
2022/07/15 00:29:30;;;;;;;9.25;2.58;;;17.10;71.60;;;;;;5017701;28;20104;-76
2022/07/15 00:31:56;;;;;;;10.25;2.58;;;17.10;71.80;;;;;;5028130;28;20099;-78
2022/07/15 00:34:22;;;;;;;12.43;2.47;;;17.00;71.60;;;;;;5018314;28;20422;-77
2022/07/15 00:36:48;;;;;;;7.78;2.50;;;17.10;71.90;;;;;;5009905;28;20030;-78
2022/07/15 00:39:15;;;;;;;9.10;2.72;;;17.00;72.00;;;;;;5022153;28;20494;-78
2022/07/15 00:41:41;;;;;;;7.28;1.90;;;17.00;72.30;;;;;;5009424;28;20037;-78
2022/07/15 00:44:08;;;;;;;9.57;2.30;;;17.00;72.40;;;;;;5020759;28;20122;-77
2022/07/15 00:46:35;;;;;;;9.32;2.83;;;17.00;72.30;;;;;;5010555;28;20033;-78
2022/07/15 00:49:03;;;;;;;7.93;2.20;;;17.00;72.40;;;;;;4999648;28;20455;-78
2022/07/15 00:51:37;;;;;;;7.47;2.15;;;17.00;72.40;;;;;;5010999;28;20087;-78
2022/07/15 00:54:05;;;;;;;11.32;2.63;;;17.00;72.40;;;;;;5002406;28;20048;-77
2022/07/15 00:56:37;;;;;;;9.15;1.92;;;17.00;72.50;;;;;;5009457;28;20033;-77
2022/07/15 00:59:05;;;;;;;11.60;2.70;;;17.00;72.50;;;;;;4998037;28;20029;-78
2022/07/15 01:01:32;;;;;;;8.52;1.88;;;17.00;72.50;;;;;;5014145;28;20025;-78
2022/07/15 01:03:59;;;;;;;7.40;2.35;;;17.00;72.60;;;;;;5017295;28;20144;-78
2022/07/15 01:06:26;;;;;;;14.82;3.25;;;17.00;72.70;;;;;;5010899;28;20030;-77
2022/07/15 01:08:52;;;;;;;10.80;2.75;;;17.00;72.70;;;;;;5023861;28;20037;-79
2022/07/15 01:11:20;;;;;;;9.02;2.33;;;17.00;72.70;;;;;;5018935;28;20026;-80
2022/07/15 01:13:46;;;;;;;8.77;2.60;;;17.10;72.70;;;;;;5011777;28;20017;-79
2022/07/15 01:16:12;;;;;;;9.93;3.03;;;17.10;72.60;;;;;;5018300;28;20029;-78
2022/07/15 01:18:40;;;;;;;12.60;2.67;;;17.10;72.70;;;;;;5028372;28;20032;-78
2022/07/15 01:21:06;;;;;;;9.90;2.95;;;17.10;72.80;;;;;;5019196;28;20563;-78
2022/07/15 01:23:31;;;;;;;9.38;2.85;;;17.10;72.80;;;;;;5024450;28;20185;-78
2022/07/15 01:25:57;;;;;;;5.70;2.10;;;17.10;72.60;;;;;;5016714;28;20017;-77
2022/07/15 01:28:23;;;;;;;7.38;1.98;;;17.10;72.70;;;;;;5011272;28;20042;-78
2022/07/15 01:30:51;;;;;;;9.10;2.40;;;17.10;72.50;;;;;;4998052;28;20026;-80
2022/07/15 01:33:16;;;;;;;8.15;2.60;;;17.20;72.60;;;;;;5012001;28;20064;-79
2022/07/15 01:35:42;;;;;;;10.75;2.72;;;17.20;72.40;;;;;;5001148;28;20480;-77
2022/07/15 01:38:11;;;;;;;8.07;2.53;;;17.20;72.20;;;;;;5021031;28;20022;-78
2022/07/15 01:40:37;;;;;;;8.27;2.78;;;17.20;72.20;;;;;;5027266;28;20111;-78
2022/07/15 01:43:02;;;;;;;9.75;2.42;;;17.20;72.10;;;;;;5013144;28;20376;-78
2022/07/15 01:45:28;;;;;;;9.05;2.88;;;17.20;72.10;;;;;;5014594;28;20033;-79
2022/07/15 01:47:55;;;;;;;12.27;2.55;;;17.20;72.10;;;;;;5016317;28;20022;-78
2022/07/15 01:50:23;;;;;;;7.35;2.30;;;17.20;72.20;;;;;;5010902;28;20029;-77
2022/07/15 01:52:48;;;;;;;11.18;2.58;;;17.10;72.50;;;;;;5004096;28;20021;-77
2022/07/15 01:55:14;;;;;;;12.73;2.95;;;17.10;73.20;;;;;;5010174;28;20032;-78
2022/07/15 01:57:39;;;;;;;10.85;2.17;;;17.10;72.60;;;;;;5019331;28;20022;-79
2022/07/15 02:00:08;;;;;;;7.72;2.40;;;17.10;72.70;;;;;;4991754;28;20499;-78
2022/07/15 02:02:34;;;;;;;8.35;2.10;;;17.10;72.70;;;;;;5016248;28;20064;-78
2022/07/15 02:04:59;;;;;;;8.90;2.75;;;17.10;72.70;;;;;;5009648;28;20499;-78
2022/07/15 02:07:25;;;;;;;9.80;2.25;;;17.10;72.70;;;;;;5015339;28;20448;-78
2022/07/15 02:09:51;;;;;;;6.07;1.95;;;17.20;72.60;;;;;;5029098;28;20021;-78
2022/07/15 02:12:16;;;;;;;10.13;2.45;;;17.20;72.60;;;;;;5004647;28;20095;-78
2022/07/15 02:14:42;;;;;;;5.00;1.67;;;17.20;72.60;;;;;;5010591;28;20133;-77
2022/07/15 02:17:09;;;;;;;10.65;2.30;;;17.20;73.10;;;;;;4998737;28;20072;-80
2022/07/15 02:19:35;;;;;;;9.40;1.92;;;17.20;72.40;;;;;;5009408;28;20056;-77
2022/07/15 02:22:00;;;;;;;9.73;2.13;;;17.20;72.30;;;;;;5003713;28;20121;-78
2022/07/15 02:24:26;;;;;;;7.50;1.83;;;17.20;72.20;;;;;;5009811;28;20021;-77
2022/07/15 02:26:52;;;;;;;8.35;2.08;;;17.30;72.40;;;;;;5004210;28;20167;-78
2022/07/15 02:29:18;;;;;;;6.57;1.80;;;17.30;72.10;;;;;;5021240;28;20032;-77
2022/07/15 02:31:43;;;;;;;7.38;1.80;;;17.30;72.10;;;;;;5024907;28;20033;-78
2022/07/15 02:34:12;;;;;;;8.68;2.00;;;17.30;72.20;;;;;;5022430;28;20085;-77
2022/07/15 02:36:38;;;;;;;9.35;2.40;;;17.20;72.20;;;;;;5028884;28;20381;-77
2022/07/15 02:39:04;;;;;;;10.10;2.42;;;17.20;72.40;;;;;;5000275;28;20032;-78
2022/07/15 02:41:30;;;;;;;6.63;2.05;;;17.20;72.50;;;;;;5012941;28;20832;-77
2022/07/15 02:43:56;;;;;;;7.32;1.50;;;17.30;72.60;;;;;;5022864;28;20125;-77
2022/07/15 02:46:21;;;;;;;5.65;1.58;;;17.30;72.50;;;;;;5012107;28;20041;-77
2022/07/15 02:48:49;;;;;;;5.80;1.58;;;17.30;72.40;;;;;;5023837;28;20037;-77
2022/07/15 02:51:15;;;;;;;6.57;2.50;;;17.30;72.30;;;;;;4993813;28;20018;-78
2022/07/15 02:53:41;;;;;;;9.45;1.90;;;17.30;72.10;;;;;;5015758;28;20050;-78
2022/07/15 02:56:07;;;;;;;6.78;1.83;;;17.20;72.20;;;;;;4993785;28;20018;-77
2022/07/15 02:58:32;;;;;;;5.68;1.70;;;17.20;72.30;;;;;;5022467;28;20030;-78
2022/07/15 03:01:01;;;;;;;14.57;2.40;;;17.20;72.20;;;;;;5012518;28;20041;-78
2022/07/15 03:03:29;;;;;;;6.20;1.70;;;17.20;72.30;;;;;;4985109;28;20029;-79
2022/07/15 03:06:00;;;;;;;8.52;1.75;;;17.20;72.40;;;;;;5014721;28;20121;-79
2022/07/15 03:08:26;;;;;;;9.68;1.80;;;17.20;72.40;;;;;;4999148;28;20029;-79
2022/07/15 03:10:54;;;;;;;6.38;1.70;;;17.20;72.40;;;;;;5026405;28;20412;-79
2022/07/15 03:13:19;;;;;;;10.02;2.58;;;17.20;72.40;;;;;;5025596;28;20080;-79
2022/07/15 03:15:46;;;;;;;9.07;1.85;;;17.20;72.60;;;;;;5011204;28;20030;-78
2022/07/15 03:18:12;;;;;;;8.25;2.53;;;17.20;72.50;;;;;;5024607;28;20064;-78
2022/07/15 03:20:37;;;;;;;11.43;2.28;;;17.20;72.60;;;;;;5003622;28;20057;-79
2022/07/15 03:23:03;;;;;;;11.60;2.45;;;17.20;72.60;;;;;;5019612;28;20026;-77
2022/07/15 03:25:29;;;;;;;12.05;1.98;;;17.20;72.60;;;;;;5019481;28;20017;-77
2022/07/15 03:27:54;;;;;;;9.13;2.45;;;17.20;72.50;;;;;;5012418;28;20093;-78
2022/07/15 03:30:22;;;;;;;8.70;1.90;;;17.20;72.60;;;;;;5026958;28;20026;-78
2022/07/15 03:32:48;;;;;;;8.93;1.90;;;17.10;72.80;;;;;;5012365;28;20030;-78
2022/07/15 03:35:13;;;;;;;7.50;1.98;;;17.10;72.90;;;;;;5000447;28;20080;-78
2022/07/15 03:37:39;;;;;;;5.47;1.75;;;17.00;72.90;;;;;;5021749;28;20029;-79
2022/07/15 03:40:05;;;;;;;8.85;2.22;;;17.00;73.20;;;;;;4997493;28;20022;-78
2022/07/15 03:42:31;;;;;;;12.05;2.30;;;17.00;73.20;;;;;;5035314;28;20060;-78
2022/07/15 03:44:57;;;;;;;10.23;2.08;;;17.00;73.20;;;;;;5030190;28;20033;-77
2022/07/15 03:47:22;;;;;;;7.55;1.90;;;17.00;73.50;;;;;;5021331;28;20101;-78
2022/07/15 03:49:48;;;;;;;7.10;2.13;;;16.90;73.50;;;;;;5001833;28;20022;-78
2022/07/15 03:52:14;;;;;;;8.00;2.03;;;17.00;73.50;;;;;;5025219;28;20057;-78
2022/07/15 03:54:39;;;;;;;5.68;1.75;;;16.90;73.70;;;;;;5007502;28;20121;-78
2022/07/15 03:57:05;;;;;;;8.13;1.80;;;16.90;73.60;;;;;;5022365;28;20026;-77
2022/07/15 03:59:31;;;;;;;7.55;1.90;;;16.90;73.60;;;;;;5007373;28;20014;-78
2022/07/15 04:01:56;;;;;;;9.15;2.90;;;16.90;73.70;;;;;;5001482;28;20107;-78
2022/07/15 04:04:22;;;;;;;11.80;1.92;;;16.90;73.80;;;;;;5026539;28;20022;-78
2022/07/15 04:06:48;;;;;;;11.48;2.22;;;16.90;73.70;;;;;;5004601;28;20018;-79
2022/07/15 04:09:14;;;;;;;12.80;2.35;;;16.90;73.80;;;;;;5032542;28;20131;-79
2022/07/15 04:11:43;;;;;;;6.22;1.80;;;16.90;73.80;;;;;;5023128;28;20428;-79
2022/07/15 04:14:11;;;;;;;8.35;2.05;;;16.90;73.70;;;;;;5029078;28;20030;-79
2022/07/15 04:16:37;;;;;;;6.55;1.88;;;16.90;73.80;;;;;;5029228;28;20026;-79
2022/07/15 04:19:02;;;;;;;8.35;1.85;;;16.90;73.90;;;;;;5034075;28;20477;-78
2022/07/15 04:21:28;;;;;;;8.23;1.73;;;16.80;74.00;;;;;;5025001;28;20545;-79
2022/07/15 04:23:53;;;;;;;7.15;2.30;;;16.80;74.10;;;;;;5029242;28;20108;-79
2022/07/15 04:26:19;;;;;;;7.47;1.75;;;16.80;74.10;;;;;;5028809;28;20029;-79
2022/07/15 04:28:45;;;;;;;8.23;2.58;;;16.80;74.20;;;;;;5023699;28;20068;-79
2022/07/15 04:31:11;;;;;;;8.38;1.98;;;16.80;74.20;;;;;;5028187;28;20029;-79
2022/07/15 04:33:36;;;;;;;5.63;1.75;;;16.80;74.10;;;;;;5029431;28;20486;-79
2022/07/15 04:36:02;;;;;;;10.85;2.05;;;16.70;74.00;;;;;;5026537;28;20030;-79
2022/07/15 04:38:29;;;;;;;8.38;2.03;;;16.80;74.20;;;;;;5028449;28;20039;-79
2022/07/15 04:40:54;;;;;;;7.75;1.50;;;16.80;74.30;;;;;;5019227;28;20440;-79
2022/07/15 04:43:20;;;;;;;6.55;1.80;;;16.70;74.30;;;;;;5019673;28;20129;-79
2022/07/15 04:45:46;;;;;;;6.88;1.98;;;16.70;74.30;;;;;;5027373;28;20018;-79
2022/07/15 04:50:56;;;;;;;4.43;1.40;;;16.60;75.00;;;;;;5025879;28;20083;-75
2022/07/15 04:53:23;;;;;;;4.47;1.58;;;17.10;76.40;;;;;;5000403;28;20050;-75
2022/07/15 04:55:49;;;;;;;5.63;0.98;;;17.70;75.40;;;;;;4985506;28;20022;-75
2022/07/15 04:58:15;;;;;;;6.38;1.20;;;18.30;74.00;;;;;;4976525;28;20036;-75
2022/07/15 05:00:45;;;;;;;8.00;1.55;;;18.90;72.80;;;;;;4985503;28;20034;-74
2022/07/15 05:03:11;;;;;;;4.60;0.88;;;19.40;71.10;;;;;;4981809;28;20190;-74
2022/07/15 05:05:37;;;;;;;3.25;1.00;;;19.60;69.70;;;;;;4986904;28;20033;-73
2022/07/15 05:08:03;;;;;;;5.35;1.30;;;19.90;68.90;;;;;;4984580;28;20027;-74
2022/07/15 05:10:29;;;;;;;5.13;1.10;;;20.10;68.00;;;;;;4985839;28;20023;-73
2022/07/15 05:12:54;;;;;;;4.45;1.20;;;20.30;67.00;;;;;;4985701;28;20549;-73
2022/07/15 05:15:20;;;;;;;5.53;1.02;;;20.40;66.10;;;;;;4989145;28;20030;-74
2022/07/15 05:17:46;;;;;;;4.50;1.20;;;20.40;65.80;;;;;;4985871;28;20015;-74
2022/07/15 05:20:12;;;;;;;3.03;0.82;;;20.40;65.40;;;;;;4989004;28;20106;-74
2022/07/15 05:22:37;;;;;;;5.07;1.30;;;20.60;65.20;;;;;;4984958;28;20561;-74
2022/07/15 05:25:04;;;;;;;5.20;1.10;;;20.60;64.70;;;;;;4985039;28;20057;-74
2022/07/15 05:27:30;;;;;;;3.95;1.10;;;20.80;64.30;;;;;;4987347;28;20026;-76
2022/07/15 05:29:55;;;;;;;4.45;0.82;;;21.00;63.60;;;;;;4987652;28;20054;-76
2022/07/15 05:32:21;;;;;;;3.50;1.10;;;21.10;63.20;;;;;;4987838;28;20033;-75
2022/07/15 05:34:49;;;;;;;4.10;1.02;;;21.30;62.60;;;;;;4985156;28;20429;-75
2022/07/15 05:37:15;;;;;;;6.00;1.00;;;21.30;62.30;;;;;;4987026;28;20643;-76
2022/07/15 05:39:53;;;;;;;7.50;1.00;;;21.50;62.00;;;;;;4986337;28;20105;-75
2022/07/15 05:42:20;;;;;;;6.68;1.98;;;21.60;61.70;;;;;;4986778;28;20563;-77
2022/07/15 05:44:47;;;;;;;4.38;0.90;;;21.70;61.10;;;;;;4981658;28;20023;-75
2022/07/15 05:47:13;;;;;;;5.72;1.00;;;21.70;61.00;;;;;;4983718;28;20088;-75
2022/07/15 05:49:40;;;;;;;4.20;0.98;;;21.60;60.80;;;;;;4983696;28;20117;-75
2022/07/15 05:52:06;;;;;;;3.97;0.75;;;21.70;60.90;;;;;;4983832;28;20055;-75
2022/07/15 05:54:31;;;;;;;4.80;1.23;;;21.60;60.70;;;;;;5019126;28;20164;-75
2022/07/15 05:56:58;;;;;;;7.07;1.10;;;21.70;60.60;;;;;;5027782;28;20080;-75
2022/07/15 05:59:23;;;;;;;4.32;1.17;;;21.80;60.20;;;;;;5024755;28;20109;-74
2022/07/15 06:01:52;;;;;;;5.50;1.25;;;21.90;60.10;;;;;;5025835;28;20120;-75
2022/07/15 06:04:17;;;;;;;8.27;1.27;;;21.90;59.90;;;;;;5036123;28;20388;-76
2022/07/15 06:06:43;;;;;;;7.15;1.20;;;21.90;59.80;;;;;;5028773;28;20071;-76
2022/07/15 06:09:09;;;;;;;4.28;1.00;;;22.00;59.50;;;;;;5030394;28;20029;-74
2022/07/15 06:11:35;;;;;;;6.63;1.30;;;22.00;59.50;;;;;;5030966;28;20025;-75
2022/07/15 06:14:01;;;;;;;6.45;1.27;;;22.10;59.40;;;;;;5032049;28;20029;-74
2022/07/15 06:16:27;;;;;;;3.50;1.10;;;22.20;59.30;;;;;;5028930;28;20056;-73
2022/07/15 06:18:52;;;;;;;5.15;1.10;;;22.20;59.10;;;;;;5030078;28;20053;-74
2022/07/15 06:21:18;;;;;;;9.48;1.40;;;22.20;59.00;;;;;;5029028;28;20443;-73
2022/07/15 06:23:44;;;;;;;4.75;0.98;;;22.20;58.90;;;;;;5029419;28;20026;-74
2022/07/15 06:26:10;;;;;;;5.97;1.08;;;22.00;59.20;;;;;;5030466;28;20167;-74
2022/07/15 06:28:36;;;;;;;3.03;0.70;;;21.90;59.40;;;;;;5029146;28;20029;-75
2022/07/15 06:31:04;;;;;;;7.72;1.50;;;21.90;59.30;;;;;;5028663;28;20033;-74
2022/07/15 06:33:30;;;;;;;6.72;1.00;;;21.80;59.50;;;;;;5030221;28;20025;-74
2022/07/15 06:35:56;;;;;;;5.18;1.17;;;21.90;59.40;;;;;;5022106;28;20030;-73
2022/07/15 06:38:22;;;;;;;5.30;1.23;;;22.00;59.00;;;;;;5025528;28;20052;-73
2022/07/15 06:40:47;;;;;;;5.95;1.10;;;22.10;58.70;;;;;;5031639;28;20026;-74
2022/07/15 06:43:13;;;;;;;7.47;1.23;;;22.10;58.40;;;;;;5030562;28;20025;-74
2022/07/15 06:45:41;;;;;;;5.13;0.98;;;21.90;58.70;;;;;;5033766;28;20022;-73
2022/07/15 06:48:07;;;;;;;3.92;0.85;;;21.80;58.80;;;;;;5028134;28;20026;-73
2022/07/15 06:50:33;;;;;;;2.53;0.70;;;21.70;58.90;;;;;;5029998;28;20075;-74
2022/07/15 06:52:59;;;;;;;5.50;1.15;;;21.80;58.80;;;;;;5033334;28;20484;-75
2022/07/15 06:55:25;;;;;;;3.70;0.80;;;21.90;58.40;;;;;;5030145;28;20049;-74
2022/07/15 06:57:52;;;;;;;6.55;1.42;;;21.90;58.20;;;;;;5030415;28;20109;-74
2022/07/15 07:00:18;;;;;;;4.72;1.00;;;22.00;58.00;;;;;;5030174;28;20014;-73
2022/07/15 07:02:46;;;;;;;4.75;1.23;;;22.10;57.90;;;;;;5032692;28;20036;-75
2022/07/15 07:05:12;;;;;;;4.35;0.80;;;22.20;57.60;;;;;;5030686;28;20022;-74
2022/07/15 07:07:40;;;;;;;2.78;0.75;;;22.30;57.40;;;;;;5024721;28;20017;-73
2022/07/15 07:10:07;;;;;;;2.85;0.60;;;22.30;57.20;;;;;;5031693;28;20060;-73
2022/07/15 07:12:32;;;;;;;3.65;0.77;;;22.20;57.10;;;;;;5030659;28;20068;-74
2022/07/15 07:15:00;;;;;;;2.75;0.73;;;22.10;58.00;;;;;;5032048;28;20052;-73
2022/07/15 07:17:26;;;;;;;2.60;0.70;;;22.10;57.50;;;;;;5030761;28;20103;-74
2022/07/15 07:19:52;;;;;;;3.30;0.90;;;22.10;57.20;;;;;;5029256;28;20395;-75
2022/07/15 07:22:18;;;;;;;4.15;0.95;;;22.10;57.20;;;;;;5032451;28;20025;-75
2022/07/15 07:24:44;;;;;;;3.80;0.77;;;22.20;57.20;;;;;;5032874;28;20029;-75
2022/07/15 07:27:10;;;;;;;8.00;1.13;;;22.20;56.70;;;;;;5025851;28;20032;-75
2022/07/15 07:29:36;;;;;;;4.65;0.80;;;22.10;56.70;;;;;;5026777;28;20117;-73
2022/07/15 07:32:02;;;;;;;4.93;1.23;;;22.20;56.70;;;;;;5029303;28;20026;-74
2022/07/15 07:34:29;;;;;;;7.43;0.90;;;22.20;56.50;;;;;;5026127;28;20029;-73
2022/07/15 07:36:54;;;;;;;3.83;0.90;;;22.30;56.40;;;;;;5027571;28;20096;-75
2022/07/15 07:39:22;;;;;;;7.85;1.35;;;22.30;56.20;;;;;;5027785;28;20029;-78
2022/07/15 07:41:53;;;;;;;3.22;0.80;;;22.30;54.30;;;;;;5039929;28;20036;-80
2022/07/15 07:44:20;;;;;;;4.20;1.00;;;22.30;54.30;;;;;;5033344;28;20079;-77
2022/07/15 07:46:46;;;;;;;5.57;1.00;;;22.20;53.50;;;;;;5041624;28;20026;-79
2022/07/15 07:49:13;;;;;;;5.55;1.23;;;22.10;53.90;;;;;;5046522;28;20025;-77
2022/07/15 07:51:42;;;;;;;4.78;0.75;;;22.10;54.10;;;;;;5041808;28;20116;-77
2022/07/15 07:54:12;;;;;;;5.72;0.90;;;22.10;55.70;;;;;;5040010;28;20060;-76
2022/07/15 07:56:44;;;;;;;5.72;1.33;;;22.00;55.40;;;;;;5044782;28;20032;-78
2022/07/15 07:59:14;;;;;;;6.22;1.10;;;22.00;53.60;;;;;;5048226;28;20025;-78
2022/07/15 08:01:44;;;;;;;4.07;0.73;;;22.00;52.20;;;;;;5042419;28;20044;-79
2022/07/15 08:04:14;;;;;;;3.35;0.95;;;21.90;52.60;;;;;;5048014;28;20041;-77
2022/07/15 08:06:43;;;;;;;3.40;0.90;;;22.10;53.30;;;;;;5031267;28;20091;-78
2022/07/15 08:09:10;;;;;;;4.00;1.00;;;22.10;51.80;;;;;;5030277;28;20041;-78
2022/07/15 08:11:35;;;;;;;7.72;1.15;;;22.10;52.80;;;;;;5036796;28;20015;-79
2022/07/15 08:14:03;;;;;;;5.43;1.00;;;21.90;52.60;;;;;;5031170;28;20171;-81
2022/07/15 08:16:30;;;;;;;3.20;1.15;;;21.90;53.30;;;;;;5035923;28;20120;-79
2022/07/15 08:18:55;;;;;;;5.80;1.00;;;21.80;56.20;;;;;;5033610;28;20029;-79
2022/07/15 08:21:21;;;;;;;5.68;0.80;;;21.60;57.30;;;;;;5034020;28;20403;-79
2022/07/15 08:23:47;;;;;;;6.82;1.30;;;21.40;55.40;;;;;;5032508;28;20052;-75
2022/07/15 08:26:18;;;;;;;5.70;1.08;;;21.40;56.10;;;;;;5032303;28;20017;-76
2022/07/15 08:28:44;;;;;;;7.10;1.60;;;21.40;56.20;;;;;;5015893;28;20034;-77
2022/07/15 08:31:13;;;;;;;3.72;0.70;;;21.50;54.30;;;;;;5011412;28;20498;-77
2022/07/15 08:33:43;;;;;;;6.47;1.58;;;21.60;53.20;;;;;;5028695;28;20041;-77
2022/07/15 08:36:12;;;;;;;7.10;0.95;;;21.80;56.00;;;;;;5040309;28;20134;-78
2022/07/15 08:38:39;;;;;;;2.03;0.52;;;22.10;52.10;;;;;;5003654;28;20123;-76
2022/07/15 08:41:05;;;;;;;3.17;0.77;;;22.30;50.60;;;;;;5022098;28;20031;-76
2022/07/15 08:43:32;;;;;;;3.65;0.70;;;22.40;52.30;;;;;;5023067;28;20587;-76
2022/07/15 08:45:58;;;;;;;3.30;0.60;;;22.50;54.70;;;;;;5021836;28;20022;-77
2022/07/15 08:48:31;;;;;;;5.45;0.90;;;22.50;56.00;;;;;;5023220;28;20030;-78
2022/07/15 08:50:59;;;;;;;3.88;0.80;;;22.60;56.50;;;;;;5021380;28;20021;-80
2022/07/15 08:53:27;;;;;;;4.72;0.75;;;22.50;52.70;;;;;;5022524;28;20046;-77
2022/07/15 08:55:53;;;;;;;4.90;1.13;;;22.50;54.40;;;;;;5020845;28;20032;-79
2022/07/15 08:58:27;;;;;;;4.38;0.90;;;22.40;57.00;;;;;;5025530;28;20017;-76
2022/07/15 09:00:52;;;;;;;5.38;1.02;;;22.30;53.40;;;;;;5035509;28;20025;-79
2022/07/15 09:03:18;;;;;;;5.38;0.80;;;22.20;56.30;;;;;;5026538;28;20085;-79
2022/07/15 09:05:44;;;;;;;5.65;1.00;;;22.10;57.00;;;;;;5026321;28;20065;-79
2022/07/15 09:08:15;;;;;;;3.22;0.70;;;22.10;55.40;;;;;;5041885;28;20025;-76
2022/07/15 09:11:00;;;;;;;5.13;0.82;;;22.10;55.40;;;;;;5030571;28;20022;-78
2022/07/15 09:13:28;;;;;;;5.45;0.70;;;22.00;54.00;;;;;;5022955;28;20027;-78
2022/07/15 09:15:55;;;;;;;7.03;0.82;;;22.00;57.00;;;;;;5010066;28;20117;-79
2022/07/15 09:18:30;;;;;;;5.00;0.70;;;21.90;56.30;;;;;;5016789;28;20034;-79
2022/07/15 09:20:57;;;;;;;5.43;1.30;;;21.90;54.90;;;;;;5024910;28;20017;-79
2022/07/15 09:23:29;;;;;;;5.00;1.30;;;21.90;54.50;;;;;;5029054;28;20208;-79
2022/07/15 09:26:20;;;;;;;5.40;0.93;;;21.90;52.60;;;;;;5001125;28;20026;-79
2022/07/15 09:28:46;;;;;;;4.43;1.10;;;21.90;52.40;;;;;;5015612;28;20025;-79
2022/07/15 09:34:01;;;;;;;4.95;0.88;;;21.80;53.60;;;;;;5024403;28;20041;-80
2022/07/15 09:36:32;;;;;;;4.25;0.85;;;21.80;53.60;;;;;;5002268;28;20025;-81
2022/07/15 09:39:04;;;;;;;5.38;1.30;;;21.80;53.50;;;;;;5004521;28;20017;-80
2022/07/15 09:41:41;;;;;;;5.50;1.00;;;21.90;53.40;;;;;;5022439;28;20044;-79
2022/07/15 09:44:11;;;;;;;5.70;0.85;;;22.00;52.60;;;;;;5016364;28;20116;-78
2022/07/15 09:46:57;;;;;;;;;;;22.20;52.40;;;;;;5032391;28;20014;-78
2022/07/15 09:49:22;;;;;;;6.65;1.20;;;22.40;51.60;;;;;;5039661;28;20308;-79
2022/07/15 09:52:01;;;;;;;3.90;1.10;;;22.60;51.20;;;;;;5026322;28;20033;-78
2022/07/15 09:54:32;;;;;;;4.63;1.25;;;22.80;50.80;;;;;;5018953;28;20097;-77
2022/07/15 09:57:02;;;;;;;3.55;0.90;;;22.80;50.70;;;;;;5010452;28;20079;-79
2022/07/15 09:59:29;;;;;;;5.25;1.23;;;22.80;51.90;;;;;;5033426;28;20026;-78
2022/07/15 10:01:55;;;;;;;5.85;0.98;;;22.80;50.80;;;;;;5028146;28;20101;-78
2022/07/15 10:04:24;;;;;;;6.28;1.30;;;22.80;50.30;;;;;;5014406;28;20056;-78
2022/07/15 10:06:52;;;;;;;4.40;1.05;;;22.70;50.00;;;;;;5031555;28;20106;-80
2022/07/15 10:09:26;;;;;;;3.83;1.05;;;22.70;50.40;;;;;;5021811;28;20038;-78
2022/07/15 10:12:00;;;;;;;8.23;1.10;;;22.80;49.80;;;;;;5001658;28;20028;-79
2022/07/15 10:14:47;;;;;;;3.88;0.93;;;23.00;50.70;;;;;;5028783;28;20009;-79
2022/07/15 10:17:28;;;;;;;4.53;1.08;;;23.40;54.10;;;;;;5014704;28;20028;-79
2022/07/15 10:20:20;;;;;;;4.70;1.02;;;23.80;47.10;;;;;;5007545;28;20017;-79
2022/07/15 10:23:15;;;;;;;3.35;0.65;;;24.00;46.90;;;;;;5023321;28;20056;-78
2022/07/15 10:26:01;;;;;;;4.38;0.88;;;23.90;46.30;;;;;;5010741;28;20072;-78
2022/07/15 10:28:36;;;;;;;2.05;0.82;;;23.90;48.50;;;;;;5000347;28;20066;-78
2022/07/15 10:31:20;;;;;;;4.43;0.85;;;24.00;48.50;;;;;;5030301;28;20467;-78
2022/07/15 10:34:04;;;;;;;2.97;0.63;;;24.10;47.40;;;;;;4999531;28;20037;-79
2022/07/15 10:36:49;;;;;;;4.50;0.60;;;24.00;47.00;;;;;;4994857;28;20571;-78
2022/07/15 10:39:21;;;;;;;7.25;1.30;;;24.00;46.60;;;;;;5015506;28;20059;-79
2022/07/15 10:42:00;;;;;;;5.57;0.93;;;24.00;46.10;;;;;;5014971;28;20045;-77
2022/07/15 10:44:28;;;;;;;3.03;0.80;;;24.10;46.00;;;;;;5000767;28;20117;-78
2022/07/15 10:47:12;;;;;;;6.03;1.20;;;24.20;46.00;;;;;;5010757;28;20072;-78
2022/07/15 10:49:39;;;;;;;5.10;0.95;;;24.20;46.80;;;;;;4997798;28;20030;-77
2022/07/15 10:52:27;;;;;;;3.97;0.55;;;24.20;46.30;;;;;;5028988;28;20380;-76
2022/07/15 10:54:55;;;;;;;5.75;0.90;;;24.30;46.10;;;;;;5019486;28;20100;-77
2022/07/15 10:57:44;;;;;;;2.33;0.55;;;24.10;45.20;;;;;;5031967;28;20097;-77
2022/07/15 11:00:24;;;;;;;3.47;0.80;;;23.90;45.70;;;;;;5007064;28;20038;-77
2022/07/15 11:03:13;;;;;;;3.83;0.98;;;23.80;46.20;;;;;;5012656;28;20121;-78
2022/07/15 11:06:05;;;;;;;6.30;0.70;;;23.60;47.40;;;;;;5015067;28;20048;-78
2022/07/15 11:08:31;;;;;;;5.07;0.75;;;23.50;47.90;;;;;;5008512;28;20192;-78
2022/07/15 11:10:57;;;;;;;5.13;0.70;;;23.70;46.90;;;;;;5004356;28;20108;-77
2022/07/15 11:13:33;;;;;;;4.53;0.90;;;23.80;46.60;;;;;;5031947;28;20021;-78
2022/07/15 11:16:00;;;;;;;4.93;1.08;;;23.80;46.20;;;;;;5022681;28;20041;-77
2022/07/15 11:18:25;;;;;;;2.28;0.80;;;23.80;47.10;;;;;;5012220;28;20105;-78
2022/07/15 11:20:53;;;;;;;4.70;0.98;;;23.90;46.70;;;;;;5004062;28;20498;-77
2022/07/15 11:23:20;;;;;;;5.07;1.10;;;23.90;47.00;;;;;;5024804;28;20511;-78
2022/07/15 11:25:47;;;;;;;2.42;0.60;;;23.80;46.00;;;;;;5005737;28;20769;-78
2022/07/15 11:28:17;;;;;;;6.50;1.25;;;23.90;46.30;;;;;;5011016;28;20104;-77
2022/07/15 11:30:48;;;;;;;4.07;0.77;;;23.80;46.90;;;;;;5021840;28;20052;-77
2022/07/15 11:33:16;;;;;;;7.28;0.90;;;23.70;46.30;;;;;;5017500;28;20549;-78
2022/07/15 11:35:45;;;;;;;5.47;0.75;;;23.60;46.80;;;;;;5022771;28;20021;-78
2022/07/15 11:38:11;;;;;;;6.55;1.27;;;23.80;47.90;;;;;;5024542;28;20032;-78
2022/07/15 11:46:12;;;;;;;2.80;0.80;;;25.00;46.90;;;;;;5025405;28;20147;-77
2022/07/15 11:48:38;;;;;;;4.25;1.02;;;25.50;46.40;;;;;;5023833;28;20075;-78
2022/07/15 11:51:07;;;;;;;3.88;0.80;;;25.60;47.30;;;;;;5008621;28;20030;-75
2022/07/15 11:53:44;;;;;;;2.85;0.65;;;25.40;46.30;;;;;;5022521;28;20077;-76
2022/07/15 11:56:12;;;;;;;4.32;1.10;;;25.10;45.60;;;;;;5022283;28;20022;-77
2022/07/15 11:58:51;;;;;;;4.43;0.77;;;24.80;44.70;;;;;;5004053;28;20018;-76
2022/07/15 12:01:21;;;;;;;1.85;0.65;;;24.60;45.60;;;;;;5001163;28;20104;-76
2022/07/15 12:03:49;;;;;;;3.40;0.80;;;24.40;46.40;;;;;;5002244;28;20453;-76
2022/07/15 12:06:23;;;;;;;4.43;0.98;;;24.30;46.90;;;;;;5004383;28;20045;-77
2022/07/15 12:08:54;;;;;;;3.72;1.00;;;24.20;46.90;;;;;;5018827;28;20026;-77
2022/07/15 12:11:26;;;;;;;4.25;0.82;;;24.20;47.50;;;;;;5007036;28;20443;-76
2022/07/15 12:13:51;;;;;;;1.70;0.70;;;24.40;46.80;;;;;;5005518;28;20507;-76
2022/07/15 12:16:21;;;;;;;5.82;0.98;;;24.50;45.80;;;;;;5020015;28;20030;-76
2022/07/15 12:18:47;;;;;;;5.97;1.30;;;24.40;45.90;;;;;;5029513;28;20389;-77
2022/07/15 12:21:16;;;;;;;3.15;0.75;;;24.30;45.50;;;;;;5026106;28;20501;-78
2022/07/15 12:23:56;;;;;;;2.63;0.77;;;24.30;45.80;;;;;;5022936;28;20104;-76
2022/07/15 12:26:21;;;;;;;4.28;0.77;;;24.20;45.40;;;;;;5004915;28;20112;-77
2022/07/15 12:28:55;;;;;;;4.43;0.63;;;24.30;44.70;;;;;;5010960;28;20041;-76
2022/07/15 12:31:32;;;;;;;3.20;0.60;;;24.30;44.80;;;;;;5010848;28;20104;-78
2022/07/15 12:33:59;;;;;;;5.93;0.68;;;24.30;45.70;;;;;;5026710;28;20064;-78
2022/07/15 12:36:32;;;;;;;2.30;0.50;;;24.30;45.90;;;;;;5034869;28;20052;-77
2022/07/15 12:39:05;;;;;;;2.83;0.60;;;24.50;49.20;;;;;;5027285;28;20045;-79
2022/07/15 12:41:30;;;;;;;4.47;1.05;;;24.80;46.10;;;;;;5018721;28;20144;-77
2022/07/15 12:43:59;;;;;;;4.57;0.90;;;24.90;46.20;;;;;;5018936;28;20101;-77
2022/07/15 12:46:52;;;;;;;5.03;0.82;;;25.00;45.20;;;;;;5006989;28;20053;-77
2022/07/15 12:49:38;;;;;;;3.72;0.80;;;24.80;45.70;;;;;;5007618;28;20090;-76
2022/07/15 12:52:34;;;;;;;4.53;0.80;;;24.60;46.30;;;;;;5004296;28;20021;-77
2022/07/15 12:55:16;;;;;;;4.07;0.50;;;24.30;45.40;;;;;;5021817;28;20133;-77
2022/07/15 12:57:42;;;;;;;4.32;1.30;;;24.10;46.80;;;;;;4997957;28;20014;-77
2022/07/15 13:00:17;;;;;;;1.58;0.45;;;24.10;49.20;;;;;;5000350;28;20056;-79
2022/07/15 13:03:10;;;;;;;6.28;1.20;;;24.20;50.00;;;;;;5002843;28;20033;-79
2022/07/15 13:05:47;;;;;;;3.53;0.73;;;24.30;48.00;;;;;;5003712;28;20037;-79
2022/07/15 13:08:18;;;;;;;2.10;0.60;;;24.30;49.50;;;;;;5018638;28;20084;-78